sensor_id;sensor_type;location;lat;lon;timestamp;pressure;altitude;pressure_sealevel;temperature;humidity
65054;BME280;51639;47.828;35.038;2022-12-29T00:13:53;100941.72;;;3.90;100.00
65054;BME280;51639;47.828;35.038;2022-12-29T00:29:13;100932.31;;;4.19;100.00
65054;BME280;51639;47.828;35.038;2022-12-29T00:44:34;100936.66;;;4.23;100.00
65054;BME280;51639;47.828;35.038;2022-12-29T00:59:40;100949.66;;;4.21;100.00
65054;BME280;51639;47.828;35.038;2022-12-29T01:14:42;100957.84;;;4.09;100.00
65054;BME280;51639;47.828;35.038;2022-12-29T01:29:44;100963.06;;;4.02;100.00
65054;BME280;51639;47.828;35.038;2022-12-29T01:44:47;100973.53;;;4.26;100.00
65054;BME280;51639;47.828;35.038;2022-12-29T01:59:55;100965.84;;;4.44;100.00
65054;BME280;51639;47.828;35.038;2022-12-29T02:15:00;100959.38;;;4.29;100.00
65054;BME280;51639;47.828;35.038;2022-12-29T02:45:26;100935.13;;;4.45;100.00
65054;BME280;51639;47.828;35.038;2022-12-29T03:00:32;100917.47;;;4.67;100.00
65054;BME280;51639;47.828;35.038;2022-12-29T03:31:03;100916.41;;;4.98;100.00
65054;BME280;51639;47.828;35.038;2022-12-29T03:46:07;100912.78;;;4.87;100.00
65054;BME280;51639;47.828;35.038;2022-12-29T04:01:09;100915.91;;;4.66;100.00
65054;BME280;51639;47.828;35.038;2022-12-29T07:22:56;101351.19;;;12.16;65.77
65054;BME280;51639;47.828;35.038;2022-12-29T07:37:58;101375.91;;;12.91;55.27
65054;BME280;51639;47.828;35.038;2022-12-29T07:53:01;101408.81;;;13.11;51.47
65054;BME280;51639;47.828;35.038;2022-12-29T08:08:03;101401.53;;;13.42;46.48
65054;BME280;51639;47.828;35.038;2022-12-29T08:23:05;101337.22;;;10.13;60.78
65054;BME280;51639;47.828;35.038;2022-12-29T08:38:07;101293.63;;;9.42;70.51
65054;BME280;51639;47.828;35.038;2022-12-29T08:53:09;101323.31;;;10.57;65.73
65054;BME280;51639;47.828;35.038;2022-12-29T09:08:14;101332.31;;;11.84;58.34
65054;BME280;51639;47.828;35.038;2022-12-29T09:23:22;101343.09;;;13.02;53.63
65054;BME280;51639;47.828;35.038;2022-12-29T09:38:25;101347.59;;;13.22;51.85
65054;BME280;51639;47.828;35.038;2022-12-29T10:39:01;101325.53;;;13.44;47.34
65054;BME280;51639;47.828;35.038;2022-12-29T10:54:13;101310.81;;;11.16;57.53
65054;BME280;51639;47.828;35.038;2022-12-29T11:09:27;101306.44;;;13.06;51.46
65054;BME280;51639;47.828;35.038;2022-12-29T11:24:47;101286.38;;;12.48;56.41
65054;BME280;51639;47.828;35.038;2022-12-29T11:40:25;101262.06;;;10.38;60.68
65054;BME280;51639;47.828;35.038;2022-12-29T11:55:27;101222.44;;;9.66;68.50
65054;BME280;51639;47.828;35.038;2022-12-29T12:10:42;101203.09;;;9.89;69.11
65054;BME280;51639;47.828;35.038;2022-12-29T12:26:11;101221.16;;;11.09;64.62
65054;BME280;51639;47.828;35.038;2022-12-29T16:34:19;100647.94;;;6.54;100.00
65054;BME280;51639;47.828;35.038;2022-12-29T16:49:24;100719.53;;;6.40;100.00
65054;BME280;51639;47.828;35.038;2022-12-29T17:04:29;100729.47;;;6.29;100.00
65054;BME280;51639;47.828;35.038;2022-12-29T17:19:33;100722.03;;;6.12;100.00
65054;BME280;51639;47.828;35.038;2022-12-29T17:34:36;100700.72;;;6.00;100.00
65054;BME280;51639;47.828;35.038;2022-12-29T17:49:38;100698.38;;;5.95;100.00
65054;BME280;51639;47.828;35.038;2022-12-29T18:04:40;100691.31;;;5.83;100.00
65054;BME280;51639;47.828;35.038;2022-12-29T18:19:42;100692.56;;;5.52;100.00
65054;BME280;51639;47.828;35.038;2022-12-29T18:34:44;100672.69;;;6.08;100.00
65054;BME280;51639;47.828;35.038;2022-12-29T18:49:46;100700.06;;;6.10;100.00
65054;BME280;51639;47.828;35.038;2022-12-29T19:04:47;100711.09;;;5.98;100.00
65054;BME280;51639;47.828;35.038;2022-12-29T19:19:54;100695.00;;;6.05;100.00
65054;BME280;51639;47.828;35.038;2022-12-29T19:34:55;100716.06;;;6.36;100.00
65054;BME280;51639;47.828;35.038;2022-12-29T19:49:58;100691.78;;;6.36;100.00
65054;BME280;51639;47.828;35.038;2022-12-29T20:05:00;100700.16;;;6.24;100.00
65054;BME280;51639;47.828;35.038;2022-12-29T20:20:02;100720.22;;;6.30;100.00
65054;BME280;51639;47.828;35.038;2022-12-29T20:35:04;100738.06;;;6.45;100.00
65054;BME280;51639;47.828;35.038;2022-12-29T20:50:07;100718.03;;;6.46;100.00
65054;BME280;51639;47.828;35.038;2022-12-29T21:05:09;100748.19;;;6.63;100.00
65054;BME280;51639;47.828;35.038;2022-12-29T21:20:25;100757.44;;;6.62;100.00
65054;BME280;51639;47.828;35.038;2022-12-29T21:35:37;100758.34;;;6.80;100.00
65054;BME280;51639;47.828;35.038;2022-12-29T21:50:40;100764.97;;;6.93;100.00
65054;BME280;51639;47.828;35.038;2022-12-29T22:06:01;100783.44;;;6.91;100.00
65054;BME280;51639;47.828;35.038;2022-12-29T22:21:22;100759.06;;;6.73;100.00
65054;BME280;51639;47.828;35.038;2022-12-29T22:36:25;100762.06;;;6.65;100.00
65054;BME280;51639;47.828;35.038;2022-12-29T22:51:27;100761.81;;;6.80;100.00
65054;BME280;51639;47.828;35.038;2022-12-29T23:06:30;100790.84;;;7.01;100.00
65054;BME280;51639;47.828;35.038;2022-12-29T23:21:32;100792.31;;;6.92;100.00
65054;BME280;51639;47.828;35.038;2022-12-29T23:36:34;100801.53;;;6.80;100.00
65054;BME280;51639;47.828;35.038;2022-12-29T23:51:36;100822.00;;;6.84;100.00
